Millinocket, Maine
Current Conditions -  °F | °C
As of 2:53 PM on Saturday 20 Dec 2014 (Local Time) from KMLT Reporting Station
Overcast Overcast  
Wind Chill: 12°   Ceiling: 1600
Heat Index: 20°   Visibility: 10mi
Dew Point: 16°   Wind: 6mph
Humidity: 85%   Direction: 340°NNW
Pressure: 30.34"   Gusts: NA
Location:  45.66°N, 68.71°W
Report Text: KMLT 201953Z AUTO 34005KT 10SM OVC016 M07/M09 A3034 RMK AO2 SLP288 T10671089
Loading
Personal Weather Stations






























Interactive Weather Map New forecast layout! Learn more

10-Day Weather Forecast

Advertisements
Track Severe Weather on mobile